Terminal Aerodrome Forecast
Issued by NWS Louisville, KY

Home | Current Version | Previous Version | Text Only | Print | Product List | Glossary On
Versions: 1 2 3 4 5 6 7 8 9 10 11 12 13
000
FTUS43 KLMK 271142
TAFSDF
TAF
KSDF 271142Z 2712/2818 20008KT P6SM -SHRA FEW016 BKN070
     FM271300 24014G21KT P6SM BKN018
     FM271800 25011KT P6SM BKN035
     FM280000 VRB04KT P6SM SCT100 BKN250=

USA.gov is the U.S. government's official web portal to all federal, state and local government web resources and services.